AAL8615 CYQX-BGGH
Flight info
| Callsign | AAL8615 |
|---|---|
| Flight time | 2h 15m |
| Altitude | 39000 |
| Route | YQX DCT SAXAN/M076F390 DCT 58N053W 62N052W DCT GONEN |
| Aircraft | A20N/M-SDE2E3FGHIRWXY/LB1 |
Departure
| Time | 2026-04-30 12:30 |
|---|---|
| Airport | Gander International Airport (CYQX) |
Arrival
| Time | 2026-04-30 14:46 |
|---|---|
| Airport | Nuuk International Airport (BGGH) |
| Time | Latitude | Longitude | Altitude | Speed | Heading |
|---|---|---|---|---|---|
| 2026-04-30 12:18 | 48.94698 | -54.57297 | 474 ft | 0 kts | 153° |
| 2026-04-30 12:27 | 48.94693 | -54.57293 | 473 ft | 2 kts | 153° |
| 2026-04-30 12:27 | 48.94670 | -54.57255 | 473 ft | 8 kts | 87° |
| 2026-04-30 12:27 | 48.94690 | -54.57129 | 470 ft | 11 kts | 65° |
| 2026-04-30 12:28 | 48.94753 | -54.56999 | 468 ft | 18 kts | 30° |
| 2026-04-30 12:28 | 48.94871 | -54.56943 | 466 ft | 23 kts | 19° |
| 2026-04-30 12:28 | 48.94944 | -54.56778 | 463 ft | 22 kts | 108° |
| 2026-04-30 12:28 | 48.94892 | -54.56546 | 458 ft | 24 kts | 107° |
| 2026-04-30 12:29 | 48.94839 | -54.56281 | 450 ft | 27 kts | 108° |
| 2026-04-30 12:29 | 48.94810 | -54.56016 | 440 ft | 16 kts | 133° |
| 2026-04-30 12:29 | 48.94767 | -54.55998 | 440 ft | 0 kts | 187° |
| 2026-04-30 12:29 | 48.94598 | -54.56049 | 441 ft | 60 kts | 190° |
| 2026-04-30 12:30 | 48.93966 | -54.56233 | 440 ft | 124 kts | 191° |
| 2026-04-30 12:30 | 48.92938 | -54.56518 | 546 ft | 165 kts | 188° |
| 2026-04-30 12:30 | 48.91811 | -54.56910 | 1125 ft | 172 kts | 191° |
| 2026-04-30 12:30 | 48.90683 | -54.57003 | 2022 ft | 162 kts | 159° |
| 2026-04-30 12:31 | 48.89899 | -54.55843 | 2607 ft | 174 kts | 111° |
| 2026-04-30 12:31 | 48.90016 | -54.53932 | 3044 ft | 201 kts | 64° |
| 2026-04-30 12:31 | 48.91140 | -54.52520 | 3492 ft | 228 kts | 24° |
| 2026-04-30 12:31 | 48.92719 | -54.51805 | 3986 ft | 249 kts | 15° |
| 2026-04-30 12:32 | 48.94481 | -54.51362 | 4559 ft | 268 kts | 7° |
| 2026-04-30 12:32 | 48.96378 | -54.51207 | 5356 ft | 276 kts | 5° |
| 2026-04-30 12:32 | 48.98280 | -54.50989 | 6285 ft | 278 kts | 7° |
| 2026-04-30 12:32 | 49.00201 | -54.50674 | 7195 ft | 281 kts | 8° |
| 2026-04-30 12:33 | 49.02122 | -54.50290 | 8061 ft | 284 kts | 9° |
| 2026-04-30 12:33 | 49.04077 | -54.49856 | 8904 ft | 287 kts | 10° |
| 2026-04-30 12:33 | 49.06067 | -54.49388 | 9731 ft | 291 kts | 10° |
| 2026-04-30 12:33 | 49.08048 | -54.48907 | 10536 ft | 295 kts | 10° |
| 2026-04-30 12:34 | 49.10100 | -54.48401 | 11043 ft | 309 kts | 10° |
| 2026-04-30 12:34 | 49.12277 | -54.47856 | 11636 ft | 319 kts | 10° |
| 2026-04-30 12:34 | 49.14453 | -54.47311 | 12389 ft | 323 kts | 10° |
| 2026-04-30 12:34 | 49.16672 | -54.46751 | 13135 ft | 327 kts | 9° |
| 2026-04-30 12:35 | 49.18901 | -54.46187 | 13853 ft | 330 kts | 9° |
| 2026-04-30 12:35 | 49.21200 | -54.45605 | 14552 ft | 334 kts | 9° |
| 2026-04-30 12:35 | 49.23474 | -54.45027 | 15238 ft | 338 kts | 9° |
| 2026-04-30 12:35 | 49.25820 | -54.44431 | 15904 ft | 342 kts | 9° |
| 2026-04-30 12:36 | 49.28144 | -54.43839 | 16564 ft | 346 kts | 9° |
| 2026-04-30 12:36 | 49.30541 | -54.43228 | 17190 ft | 350 kts | 9° |
| 2026-04-30 12:36 | 49.32951 | -54.42613 | 17817 ft | 354 kts | 9° |
| 2026-04-30 12:36 | 49.35385 | -54.41991 | 18428 ft | 358 kts | 9° |
| 2026-04-30 12:37 | 49.37823 | -54.41368 | 19011 ft | 362 kts | 9° |
| 2026-04-30 12:37 | 49.40320 | -54.40729 | 19606 ft | 366 kts | 9° |
| 2026-04-30 12:37 | 49.42850 | -54.40080 | 20202 ft | 369 kts | 9° |
| 2026-04-30 12:37 | 49.45377 | -54.39432 | 20762 ft | 373 kts | 9° |
| 2026-04-30 12:38 | 49.47919 | -54.38779 | 21309 ft | 377 kts | 9° |
| 2026-04-30 12:38 | 49.50523 | -54.38109 | 21859 ft | 380 kts | 9° |
| 2026-04-30 12:38 | 49.53117 | -54.37441 | 22387 ft | 384 kts | 9° |
| 2026-04-30 12:38 | 49.55762 | -54.36758 | 22885 ft | 387 kts | 9° |
| 2026-04-30 12:39 | 49.58402 | -54.36078 | 23378 ft | 391 kts | 9° |
| 2026-04-30 12:39 | 49.61116 | -54.35378 | 23880 ft | 394 kts | 9° |
| 2026-04-30 12:39 | 49.63823 | -54.34679 | 24371 ft | 397 kts | 9° |
| 2026-04-30 12:39 | 49.66526 | -54.33979 | 24853 ft | 400 kts | 10° |
| 2026-04-30 12:40 | 49.69265 | -54.33270 | 25339 ft | 403 kts | 9° |
| 2026-04-30 12:40 | 49.72040 | -54.32549 | 25819 ft | 406 kts | 9° |
| 2026-04-30 12:40 | 49.74837 | -54.31822 | 26284 ft | 409 kts | 9° |
| 2026-04-30 12:40 | 49.77631 | -54.31095 | 26746 ft | 412 kts | 9° |
| 2026-04-30 12:41 | 49.80460 | -54.30358 | 27200 ft | 414 kts | 9° |
| 2026-04-30 12:41 | 49.83287 | -54.29621 | 27625 ft | 417 kts | 9° |
| 2026-04-30 12:41 | 49.86177 | -54.28868 | 28063 ft | 420 kts | 9° |
| 2026-04-30 12:41 | 49.89051 | -54.28118 | 28486 ft | 422 kts | 9° |
| 2026-04-30 12:42 | 49.91925 | -54.27366 | 28895 ft | 425 kts | 9° |
| 2026-04-30 12:42 | 49.94862 | -54.26596 | 29290 ft | 428 kts | 9° |
| 2026-04-30 12:42 | 49.97789 | -54.25829 | 29677 ft | 430 kts | 9° |
| 2026-04-30 12:42 | 50.00743 | -54.25054 | 30065 ft | 432 kts | 9° |
| 2026-04-30 12:43 | 50.03702 | -54.24277 | 30425 ft | 435 kts | 9° |
| 2026-04-30 12:43 | 50.06702 | -54.23486 | 30774 ft | 438 kts | 9° |
| 2026-04-30 12:43 | 50.09672 | -54.22703 | 31123 ft | 440 kts | 9° |
| 2026-04-30 12:43 | 50.12684 | -54.21907 | 31458 ft | 442 kts | 9° |
| 2026-04-30 12:44 | 50.15743 | -54.21099 | 31762 ft | 445 kts | 9° |
| 2026-04-30 12:44 | 50.18777 | -54.20296 | 32061 ft | 447 kts | 9° |
| 2026-04-30 12:44 | 50.21826 | -54.19488 | 32350 ft | 449 kts | 9° |
| 2026-04-30 12:44 | 50.24924 | -54.18665 | 32646 ft | 451 kts | 9° |
| 2026-04-30 12:45 | 50.27985 | -54.17852 | 32942 ft | 452 kts | 9° |
| 2026-04-30 12:45 | 50.31074 | -54.17032 | 33212 ft | 454 kts | 9° |
| 2026-04-30 12:45 | 50.34193 | -54.16202 | 33470 ft | 455 kts | 9° |
| 2026-04-30 12:45 | 50.37300 | -54.15374 | 33706 ft | 457 kts | 9° |
| 2026-04-30 12:46 | 50.40437 | -54.14536 | 33937 ft | 459 kts | 9° |
| 2026-04-30 12:46 | 50.43580 | -54.13696 | 34158 ft | 461 kts | 9° |
| 2026-04-30 12:46 | 50.46732 | -54.12852 | 34422 ft | 461 kts | 9° |
| 2026-04-30 12:46 | 50.49867 | -54.12011 | 34709 ft | 460 kts | 9° |
| 2026-04-30 12:47 | 50.53051 | -54.11156 | 34968 ft | 459 kts | 9° |
| 2026-04-30 12:47 | 50.56163 | -54.10318 | 35212 ft | 458 kts | 9° |
| 2026-04-30 12:47 | 50.59306 | -54.09470 | 35457 ft | 457 kts | 9° |
| 2026-04-30 12:47 | 50.62403 | -54.08634 | 35706 ft | 456 kts | 9° |
| 2026-04-30 12:48 | 50.65523 | -54.07792 | 35942 ft | 455 kts | 9° |
| 2026-04-30 12:48 | 50.68636 | -54.06951 | 36152 ft | 454 kts | 9° |
| 2026-04-30 12:48 | 50.71760 | -54.06105 | 36351 ft | 454 kts | 9° |
| 2026-04-30 12:48 | 50.74857 | -54.05265 | 36551 ft | 453 kts | 9° |
| 2026-04-30 12:49 | 50.77954 | -54.04424 | 36790 ft | 453 kts | 9° |
| 2026-04-30 12:49 | 50.81056 | -54.03582 | 37015 ft | 453 kts | 9° |
| 2026-04-30 12:49 | 50.84124 | -54.02747 | 37243 ft | 452 kts | 9° |
| 2026-04-30 12:49 | 50.87239 | -54.01899 | 37481 ft | 451 kts | 9° |
| 2026-04-30 12:50 | 50.90303 | -54.01063 | 37701 ft | 451 kts | 9° |
| 2026-04-30 12:50 | 50.93368 | -54.00224 | 37914 ft | 450 kts | 9° |
| 2026-04-30 12:50 | 50.96447 | -53.99381 | 38121 ft | 450 kts | 9° |
| 2026-04-30 12:50 | 50.99528 | -53.98536 | 38297 ft | 449 kts | 9° |
| 2026-04-30 12:51 | 51.02594 | -53.97695 | 38500 ft | 449 kts | 9° |
| 2026-04-30 12:51 | 51.05642 | -53.96857 | 38689 ft | 448 kts | 9° |
| 2026-04-30 12:51 | 51.08720 | -53.96010 | 38853 ft | 447 kts | 9° |
| 2026-04-30 12:51 | 51.11740 | -53.95179 | 38990 ft | 447 kts | 9° |
| 2026-04-30 12:52 | 51.14785 | -53.94338 | 39115 ft | 447 kts | 9° |
| 2026-04-30 12:52 | 51.17855 | -53.93491 | 39209 ft | 447 kts | 9° |
| 2026-04-30 12:52 | 51.23984 | -53.91795 | 39296 ft | 448 kts | 9° |
| 2026-04-30 12:53 | 51.30076 | -53.90104 | 39299 ft | 448 kts | 9° |
| 2026-04-30 12:53 | 51.36222 | -53.88393 | 39294 ft | 449 kts | 9° |
| 2026-04-30 12:54 | 51.42366 | -53.86675 | 39286 ft | 449 kts | 9° |
| 2026-04-30 12:54 | 51.48497 | -53.85081 | 39293 ft | 448 kts | 5° |
| 2026-04-30 12:55 | 51.54660 | -53.84251 | 39288 ft | 448 kts | 2° |
| 2026-04-30 12:55 | 51.60858 | -53.83585 | 39284 ft | 448 kts | 2° |
| 2026-04-30 12:56 | 51.67074 | -53.82906 | 39279 ft | 448 kts | 2° |
| 2026-04-30 12:56 | 51.73237 | -53.82220 | 39270 ft | 448 kts | 2° |
| 2026-04-30 12:57 | 51.79451 | -53.81524 | 39277 ft | 448 kts | 2° |
| 2026-04-30 12:57 | 51.85666 | -53.80823 | 39282 ft | 449 kts | 2° |
| 2026-04-30 12:58 | 51.91864 | -53.80122 | 39284 ft | 449 kts | 2° |
| 2026-04-30 12:58 | 51.98043 | -53.79419 | 39282 ft | 448 kts | 2° |
| 2026-04-30 12:59 | 52.04250 | -53.78712 | 39283 ft | 449 kts | 2° |
| 2026-04-30 12:59 | 52.10473 | -53.78003 | 39275 ft | 449 kts | 2° |
| 2026-04-30 13:00 | 52.16679 | -53.77293 | 39277 ft | 449 kts | 2° |
| 2026-04-30 13:00 | 52.22916 | -53.76578 | 39274 ft | 449 kts | 2° |
| 2026-04-30 13:01 | 52.29125 | -53.75863 | 39270 ft | 450 kts | 2° |
| 2026-04-30 13:01 | 52.35361 | -53.75143 | 39269 ft | 451 kts | 2° |
| 2026-04-30 13:02 | 52.41571 | -53.74424 | 39267 ft | 451 kts | 2° |
| 2026-04-30 13:02 | 52.47808 | -53.73698 | 39267 ft | 451 kts | 2° |
| 2026-04-30 13:03 | 52.54037 | -53.72974 | 39264 ft | 451 kts | 2° |
| 2026-04-30 13:03 | 52.60287 | -53.72245 | 39258 ft | 451 kts | 2° |
| 2026-04-30 13:04 | 52.66534 | -53.71514 | 39259 ft | 451 kts | 2° |
| 2026-04-30 13:04 | 52.72751 | -53.70782 | 39256 ft | 451 kts | 2° |
| 2026-04-30 13:05 | 52.79006 | -53.70047 | 39253 ft | 452 kts | 1° |
| 2026-04-30 13:06 | 52.88395 | -53.68936 | 39245 ft | 453 kts | 1° |
| 2026-04-30 13:06 | 52.94634 | -53.68198 | 39246 ft | 453 kts | 1° |
| 2026-04-30 13:07 | 53.00895 | -53.67453 | 39242 ft | 453 kts | 1° |
| 2026-04-30 13:07 | 53.07186 | -53.66703 | 39240 ft | 453 kts | 1° |
| 2026-04-30 13:08 | 53.13460 | -53.65953 | 39244 ft | 453 kts | 1° |
| 2026-04-30 13:08 | 53.19734 | -53.65197 | 39239 ft | 454 kts | 1° |
| 2026-04-30 13:09 | 53.26002 | -53.64442 | 39230 ft | 454 kts | 1° |
| 2026-04-30 13:09 | 53.32253 | -53.63691 | 39236 ft | 454 kts | 1° |
| 2026-04-30 13:10 | 53.38538 | -53.62931 | 39242 ft | 455 kts | 1° |
| 2026-04-30 13:10 | 53.44815 | -53.62165 | 39231 ft | 455 kts | 1° |
| 2026-04-30 13:11 | 53.51117 | -53.61399 | 39222 ft | 455 kts | 1° |
| 2026-04-30 13:11 | 53.57382 | -53.60635 | 39220 ft | 456 kts | 1° |
| 2026-04-30 13:12 | 53.63688 | -53.59861 | 39215 ft | 456 kts | 1° |
| 2026-04-30 13:12 | 53.70010 | -53.59085 | 39212 ft | 456 kts | 0° |
| 2026-04-30 13:13 | 53.79446 | -53.57922 | 39212 ft | 456 kts | 0° |
| 2026-04-30 13:14 | 53.88923 | -53.56746 | 39206 ft | 457 kts | 0° |
| 2026-04-30 13:14 | 53.98422 | -53.55566 | 39193 ft | 457 kts | 0° |
| 2026-04-30 13:15 | 54.07879 | -53.54381 | 39184 ft | 458 kts | 0° |
| 2026-04-30 13:16 | 54.14224 | -53.53585 | 39182 ft | 458 kts | 0° |
| 2026-04-30 13:16 | 54.20547 | -53.52789 | 39180 ft | 458 kts | 0° |
| 2026-04-30 13:17 | 54.30037 | -53.51590 | 39171 ft | 459 kts | 0° |
| 2026-04-30 13:18 | 54.39543 | -53.50384 | 39165 ft | 459 kts | 0° |
| 2026-04-30 13:18 | 54.49106 | -53.49163 | 39155 ft | 461 kts | 360° |
| 2026-04-30 13:19 | 54.55467 | -53.48351 | 39152 ft | 461 kts | 360° |
| 2026-04-30 13:19 | 54.61845 | -53.47533 | 39150 ft | 461 kts | 360° |
| 2026-04-30 13:20 | 54.68211 | -53.46711 | 39153 ft | 461 kts | 360° |
| 2026-04-30 13:20 | 54.74572 | -53.45890 | 39148 ft | 462 kts | 360° |
| 2026-04-30 13:21 | 54.80968 | -53.45060 | 39141 ft | 463 kts | 359° |
| 2026-04-30 13:22 | 54.90577 | -53.43807 | 39132 ft | 463 kts | 359° |
| 2026-04-30 13:22 | 55.00181 | -53.42552 | 39118 ft | 464 kts | 359° |
| 2026-04-30 13:23 | 55.09792 | -53.41291 | 39115 ft | 463 kts | 359° |
| 2026-04-30 13:24 | 55.22599 | -53.39597 | 39101 ft | 464 kts | 359° |
| 2026-04-30 13:25 | 55.35460 | -53.37885 | 39106 ft | 464 kts | 359° |
| 2026-04-30 13:26 | 55.51500 | -53.35736 | 39104 ft | 465 kts | 359° |
| 2026-04-30 13:28 | 55.67555 | -53.33566 | 39088 ft | 465 kts | 360° |
| 2026-04-30 13:28 | 55.77155 | -53.32261 | 39094 ft | 465 kts | 360° |
| 2026-04-30 13:29 | 55.89991 | -53.30506 | 39075 ft | 465 kts | 360° |
| 2026-04-30 13:31 | 56.06068 | -53.28291 | 39068 ft | 466 kts | 359° |
| 2026-04-30 13:32 | 56.22168 | -53.26052 | 39063 ft | 465 kts | 360° |
| 2026-04-30 13:33 | 56.35014 | -53.24252 | 39052 ft | 465 kts | 359° |
| 2026-04-30 13:34 | 56.44639 | -53.22894 | 39041 ft | 463 kts | 359° |
| 2026-04-30 13:35 | 56.57441 | -53.21083 | 39034 ft | 464 kts | 359° |
| 2026-04-30 13:36 | 56.70216 | -53.19257 | 39023 ft | 462 kts | 359° |
| 2026-04-30 13:36 | 56.79765 | -53.17887 | 39016 ft | 462 kts | 359° |
| 2026-04-30 13:37 | 56.89343 | -53.16507 | 39002 ft | 462 kts | 359° |
| 2026-04-30 13:38 | 56.98922 | -53.15120 | 38994 ft | 462 kts | 359° |
| 2026-04-30 13:39 | 57.11677 | -53.13260 | 38994 ft | 461 kts | 359° |
| 2026-04-30 13:40 | 57.21234 | -53.11858 | 38996 ft | 461 kts | 359° |
| 2026-04-30 13:40 | 57.27584 | -53.10920 | 39001 ft | 460 kts | 359° |
| 2026-04-30 13:41 | 57.33909 | -53.09985 | 38980 ft | 460 kts | 359° |
| 2026-04-30 13:41 | 57.40279 | -53.09039 | 38981 ft | 459 kts | 359° |
| 2026-04-30 13:42 | 57.46594 | -53.08099 | 38976 ft | 459 kts | 359° |
| 2026-04-30 13:42 | 57.56127 | -53.06672 | 38977 ft | 460 kts | 359° |
| 2026-04-30 13:43 | 57.62487 | -53.05715 | 38977 ft | 461 kts | 359° |
| 2026-04-30 13:43 | 57.68859 | -53.04757 | 38965 ft | 461 kts | 359° |
| 2026-04-30 13:44 | 57.75243 | -53.03788 | 38971 ft | 461 kts | 359° |
| 2026-04-30 13:44 | 57.81573 | -53.02826 | 38954 ft | 460 kts | 359° |
| 2026-04-30 13:45 | 57.91089 | -53.01376 | 38962 ft | 459 kts | 359° |
| 2026-04-30 13:46 | 57.97403 | -53.00406 | 38954 ft | 459 kts | 359° |
| 2026-04-30 13:46 | 58.03759 | -52.99225 | 38963 ft | 461 kts | 1° |
| 2026-04-30 13:47 | 58.10075 | -52.97804 | 38951 ft | 461 kts | 1° |
| 2026-04-30 13:47 | 58.16406 | -52.96373 | 38953 ft | 461 kts | 1° |
| 2026-04-30 13:48 | 58.22751 | -52.94946 | 38949 ft | 462 kts | 1° |
| 2026-04-30 13:48 | 58.29091 | -52.93517 | 38942 ft | 461 kts | 1° |
| 2026-04-30 13:49 | 58.35462 | -52.92079 | 38940 ft | 461 kts | 1° |
| 2026-04-30 13:49 | 58.41766 | -52.90653 | 38937 ft | 461 kts | 1° |
| 2026-04-30 13:50 | 58.48114 | -52.89211 | 38936 ft | 461 kts | 1° |
| 2026-04-30 13:50 | 58.57652 | -52.87035 | 38932 ft | 461 kts | 1° |
| 2026-04-30 13:51 | 58.63969 | -52.85586 | 38927 ft | 461 kts | 1° |
| 2026-04-30 13:51 | 58.70295 | -52.84130 | 38920 ft | 461 kts | 1° |
| 2026-04-30 13:52 | 58.76657 | -52.82660 | 38913 ft | 460 kts | 1° |
| 2026-04-30 13:52 | 58.82985 | -52.81195 | 38908 ft | 461 kts | 1° |
| 2026-04-30 13:53 | 58.89306 | -52.79725 | 38894 ft | 461 kts | 1° |
| 2026-04-30 13:53 | 58.94589 | -52.78493 | 38891 ft | 461 kts | 1° |
| 2026-04-30 13:54 | 59.02013 | -52.76754 | 38880 ft | 463 kts | 1° |
| 2026-04-30 13:54 | 59.08338 | -52.75264 | 38884 ft | 462 kts | 1° |
| 2026-04-30 13:55 | 59.14698 | -52.73762 | 38877 ft | 461 kts | 1° |
| 2026-04-30 13:55 | 59.21022 | -52.72260 | 38871 ft | 461 kts | 1° |
| 2026-04-30 13:56 | 59.27378 | -52.70748 | 38873 ft | 460 kts | 1° |
| 2026-04-30 13:56 | 59.33704 | -52.69238 | 38875 ft | 460 kts | 1° |
| 2026-04-30 13:57 | 59.39984 | -52.67735 | 38874 ft | 460 kts | 1° |
| 2026-04-30 13:57 | 59.46340 | -52.66206 | 38870 ft | 460 kts | 1° |
| 2026-04-30 13:58 | 59.55827 | -52.63911 | 38876 ft | 460 kts | 1° |
| 2026-04-30 13:59 | 59.62135 | -52.62380 | 38865 ft | 460 kts | 1° |
| 2026-04-30 13:59 | 59.68414 | -52.60850 | 38868 ft | 459 kts | 1° |
| 2026-04-30 14:00 | 59.74746 | -52.59300 | 38850 ft | 460 kts | 1° |
| 2026-04-30 14:00 | 59.84223 | -52.56970 | 38855 ft | 459 kts | 1° |
| 2026-04-30 14:01 | 59.90519 | -52.55414 | 38854 ft | 458 kts | 1° |
| 2026-04-30 14:01 | 59.96784 | -52.53859 | 38841 ft | 458 kts | 1° |
| 2026-04-30 14:02 | 60.03082 | -52.52294 | 38848 ft | 458 kts | 1° |
| 2026-04-30 14:02 | 60.09399 | -52.50713 | 38848 ft | 458 kts | 1° |
| 2026-04-30 14:03 | 60.15679 | -52.49139 | 38854 ft | 459 kts | 1° |
| 2026-04-30 14:03 | 60.21965 | -52.47554 | 38850 ft | 458 kts | 1° |
| 2026-04-30 14:04 | 60.28271 | -52.45961 | 38853 ft | 458 kts | 1° |
| 2026-04-30 14:04 | 60.34539 | -52.44368 | 38860 ft | 457 kts | 1° |
| 2026-04-30 14:05 | 60.40809 | -52.42771 | 38859 ft | 457 kts | 1° |
| 2026-04-30 14:05 | 60.47109 | -52.41161 | 38853 ft | 456 kts | 1° |
| 2026-04-30 14:06 | 60.56493 | -52.38749 | 38852 ft | 456 kts | 1° |
| 2026-04-30 14:07 | 60.65886 | -52.36319 | 38849 ft | 456 kts | 1° |
| 2026-04-30 14:08 | 60.75286 | -52.33874 | 38848 ft | 457 kts | 2° |
| 2026-04-30 14:08 | 60.84692 | -52.31415 | 38846 ft | 456 kts | 2° |
| 2026-04-30 14:09 | 60.90925 | -52.29773 | 38846 ft | 456 kts | 2° |
| 2026-04-30 14:10 | 61.00316 | -52.27292 | 38865 ft | 454 kts | 2° |
| 2026-04-30 14:10 | 61.06540 | -52.25641 | 38857 ft | 454 kts | 2° |
| 2026-04-30 14:11 | 61.12776 | -52.23980 | 38858 ft | 455 kts | 2° |
| 2026-04-30 14:11 | 61.19037 | -52.22306 | 38845 ft | 455 kts | 2° |
| 2026-04-30 14:12 | 61.25265 | -52.20631 | 38851 ft | 455 kts | 2° |
| 2026-04-30 14:12 | 61.31531 | -52.18940 | 38843 ft | 455 kts | 2° |
| 2026-04-30 14:13 | 61.37769 | -52.17247 | 38850 ft | 455 kts | 2° |
| 2026-04-30 14:13 | 61.43995 | -52.15554 | 38851 ft | 455 kts | 2° |
| 2026-04-30 14:14 | 61.50247 | -52.13847 | 38847 ft | 455 kts | 2° |
| 2026-04-30 14:14 | 61.53389 | -52.12988 | 38709 ft | 456 kts | 2° |
| 2026-04-30 14:14 | 61.56511 | -52.12128 | 38463 ft | 454 kts | 2° |
| 2026-04-30 14:14 | 61.59600 | -52.11275 | 38242 ft | 452 kts | 2° |
| 2026-04-30 14:15 | 61.62677 | -52.10426 | 38048 ft | 450 kts | 2° |
| 2026-04-30 14:15 | 61.65756 | -52.09574 | 37847 ft | 448 kts | 2° |
| 2026-04-30 14:15 | 61.68811 | -52.08729 | 37636 ft | 445 kts | 2° |
| 2026-04-30 14:15 | 61.71887 | -52.07878 | 37434 ft | 445 kts | 2° |
| 2026-04-30 14:16 | 61.74936 | -52.07031 | 37234 ft | 444 kts | 1° |
| 2026-04-30 14:16 | 61.77975 | -52.06186 | 37030 ft | 444 kts | 1° |
| 2026-04-30 14:16 | 61.81030 | -52.05334 | 36826 ft | 443 kts | 1° |
| 2026-04-30 14:16 | 61.84075 | -52.04483 | 36627 ft | 443 kts | 1° |
| 2026-04-30 14:17 | 61.87107 | -52.03634 | 36419 ft | 443 kts | 1° |
| 2026-04-30 14:17 | 61.90118 | -52.02787 | 36213 ft | 442 kts | 1° |
| 2026-04-30 14:17 | 61.93149 | -52.01934 | 36010 ft | 442 kts | 1° |
| 2026-04-30 14:17 | 61.96176 | -52.01082 | 35797 ft | 441 kts | 1° |
| 2026-04-30 14:18 | 61.99233 | -52.00243 | 35588 ft | 440 kts | 360° |
| 2026-04-30 14:18 | 62.02253 | -51.99686 | 35386 ft | 438 kts | 357° |
| 2026-04-30 14:18 | 62.08300 | -51.98928 | 34809 ft | 439 kts | 356° |
| 2026-04-30 14:19 | 62.14416 | -51.98203 | 33733 ft | 446 kts | 357° |
| 2026-04-30 14:19 | 62.17517 | -51.97830 | 33067 ft | 452 kts | 357° |
| 2026-04-30 14:19 | 62.20652 | -51.97447 | 32328 ft | 458 kts | 357° |
| 2026-04-30 14:20 | 62.23789 | -51.97059 | 31565 ft | 461 kts | 357° |
| 2026-04-30 14:20 | 62.26968 | -51.96655 | 31053 ft | 457 kts | 357° |
| 2026-04-30 14:20 | 62.33234 | -51.95849 | 30059 ft | 447 kts | 357° |
| 2026-04-30 14:21 | 62.36280 | -51.95461 | 29588 ft | 442 kts | 357° |
| 2026-04-30 14:21 | 62.39307 | -51.95076 | 29100 ft | 438 kts | 357° |
| 2026-04-30 14:21 | 62.45313 | -51.94312 | 28151 ft | 430 kts | 357° |
| 2026-04-30 14:22 | 62.48257 | -51.93938 | 27667 ft | 426 kts | 357° |
| 2026-04-30 14:22 | 62.54088 | -51.93191 | 26759 ft | 418 kts | 356° |
| 2026-04-30 14:22 | 62.56950 | -51.92823 | 26316 ft | 414 kts | 356° |
| 2026-04-30 14:23 | 62.62638 | -51.92091 | 25472 ft | 406 kts | 356° |
| 2026-04-30 14:23 | 62.68181 | -51.91379 | 24620 ft | 400 kts | 356° |
| 2026-04-30 14:24 | 62.73648 | -51.90673 | 23819 ft | 393 kts | 356° |
| 2026-04-30 14:24 | 62.76367 | -51.90321 | 23384 ft | 392 kts | 357° |
| 2026-04-30 14:25 | 62.81760 | -51.89622 | 22552 ft | 387 kts | 357° |
| 2026-04-30 14:25 | 62.87060 | -51.88929 | 21716 ft | 383 kts | 358° |
| 2026-04-30 14:26 | 62.92295 | -51.88245 | 20909 ft | 377 kts | 358° |
| 2026-04-30 14:26 | 62.94906 | -51.87903 | 20498 ft | 375 kts | 358° |
| 2026-04-30 14:26 | 63.00029 | -51.87229 | 19710 ft | 368 kts | 359° |
| 2026-04-30 14:27 | 63.02564 | -51.86893 | 19312 ft | 366 kts | 359° |
| 2026-04-30 14:27 | 63.05104 | -51.86554 | 18958 ft | 360 kts | 359° |
| 2026-04-30 14:27 | 63.07547 | -51.86225 | 18682 ft | 353 kts | 360° |
| 2026-04-30 14:28 | 63.12353 | -51.85578 | 18026 ft | 342 kts | 359° |
| 2026-04-30 14:28 | 63.14681 | -51.85264 | 17623 ft | 333 kts | 359° |
| 2026-04-30 14:28 | 63.16944 | -51.84958 | 17075 ft | 324 kts | 359° |
| 2026-04-30 14:28 | 63.19170 | -51.84660 | 16611 ft | 322 kts | 359° |
| 2026-04-30 14:29 | 63.23627 | -51.84067 | 15764 ft | 319 kts | 359° |
| 2026-04-30 14:29 | 63.27268 | -51.83579 | 15132 ft | 314 kts | 359° |
| 2026-04-30 14:30 | 63.34401 | -51.82623 | 13909 ft | 307 kts | 0° |
| 2026-04-30 14:31 | 63.38623 | -51.82054 | 13176 ft | 304 kts | 0° |
| 2026-04-30 14:31 | 63.42791 | -51.81486 | 12440 ft | 300 kts | 1° |
| 2026-04-30 14:31 | 63.44870 | -51.81204 | 12094 ft | 298 kts | 1° |
| 2026-04-30 14:32 | 63.48928 | -51.80647 | 11547 ft | 287 kts | 1° |
| 2026-04-30 14:32 | 63.50908 | -51.80373 | 11246 ft | 283 kts | 1° |
| 2026-04-30 14:32 | 63.52833 | -51.80110 | 10923 ft | 280 kts | 1° |
| 2026-04-30 14:33 | 63.54767 | -51.79847 | 10579 ft | 278 kts | 1° |
| 2026-04-30 14:33 | 63.58575 | -51.79326 | 10002 ft | 273 kts | 2° |
| 2026-04-30 14:33 | 63.60468 | -51.79066 | 9827 ft | 275 kts | 2° |
| 2026-04-30 14:34 | 63.62361 | -51.78805 | 9509 ft | 274 kts | 2° |
| 2026-04-30 14:34 | 63.64260 | -51.78543 | 9187 ft | 272 kts | 2° |
| 2026-04-30 14:34 | 63.66142 | -51.78283 | 8858 ft | 271 kts | 3° |
| 2026-04-30 14:34 | 63.67998 | -51.78024 | 8526 ft | 270 kts | 3° |
| 2026-04-30 14:35 | 63.71111 | -51.77623 | 7978 ft | 268 kts | 360° |
| 2026-04-30 14:35 | 63.73522 | -51.77899 | 7540 ft | 257 kts | 355° |
| 2026-04-30 14:35 | 63.75265 | -51.78224 | 7128 ft | 250 kts | 355° |
| 2026-04-30 14:36 | 63.76961 | -51.78525 | 6708 ft | 242 kts | 356° |
| 2026-04-30 14:36 | 63.78611 | -51.78793 | 6361 ft | 231 kts | 357° |
| 2026-04-30 14:36 | 63.80170 | -51.79030 | 6067 ft | 219 kts | 357° |
| 2026-04-30 14:36 | 63.81635 | -51.79242 | 5897 ft | 205 kts | 357° |
| 2026-04-30 14:37 | 63.83028 | -51.79437 | 5634 ft | 200 kts | 358° |
| 2026-04-30 14:37 | 63.84400 | -51.79628 | 5356 ft | 195 kts | 358° |
| 2026-04-30 14:37 | 63.85719 | -51.79810 | 5120 ft | 189 kts | 358° |
| 2026-04-30 14:37 | 63.87024 | -51.79989 | 4893 ft | 187 kts | 358° |
| 2026-04-30 14:38 | 63.88316 | -51.80164 | 4664 ft | 187 kts | 358° |
| 2026-04-30 14:38 | 63.89605 | -51.80339 | 4450 ft | 186 kts | 358° |
| 2026-04-30 14:38 | 63.90896 | -51.80518 | 4226 ft | 185 kts | 358° |
| 2026-04-30 14:38 | 63.92165 | -51.80689 | 4031 ft | 183 kts | 358° |
| 2026-04-30 14:39 | 63.93444 | -51.80865 | 3805 ft | 183 kts | 358° |
| 2026-04-30 14:39 | 63.94698 | -51.81038 | 3579 ft | 182 kts | 358° |
| 2026-04-30 14:39 | 63.95963 | -51.81213 | 3355 ft | 182 kts | 358° |
| 2026-04-30 14:40 | 63.98460 | -51.81538 | 3138 ft | 180 kts | 360° |
| 2026-04-30 14:40 | 63.99704 | -51.81427 | 3108 ft | 173 kts | 8° |
| 2026-04-30 14:40 | 64.00821 | -51.80973 | 3056 ft | 154 kts | 14° |
| 2026-04-30 14:40 | 64.01817 | -51.80416 | 3041 ft | 141 kts | 17° |
| 2026-04-30 14:41 | 64.02737 | -51.79833 | 3022 ft | 136 kts | 18° |
| 2026-04-30 14:41 | 64.03643 | -51.79214 | 3028 ft | 135 kts | 19° |
| 2026-04-30 14:41 | 64.04533 | -51.78583 | 3014 ft | 135 kts | 19° |
| 2026-04-30 14:41 | 64.05440 | -51.77927 | 2992 ft | 135 kts | 19° |
| 2026-04-30 14:42 | 64.06323 | -51.77280 | 2942 ft | 135 kts | 19° |
| 2026-04-30 14:42 | 64.07221 | -51.76620 | 2744 ft | 135 kts | 19° |
| 2026-04-30 14:42 | 64.08104 | -51.75970 | 2547 ft | 134 kts | 19° |
| 2026-04-30 14:42 | 64.08981 | -51.75325 | 2353 ft | 133 kts | 19° |
| 2026-04-30 14:43 | 64.09854 | -51.74685 | 2159 ft | 132 kts | 19° |
| 2026-04-30 14:43 | 64.10722 | -51.74049 | 1966 ft | 130 kts | 19° |
| 2026-04-30 14:43 | 64.11588 | -51.73415 | 1770 ft | 129 kts | 19° |
| 2026-04-30 14:43 | 64.12425 | -51.72803 | 1582 ft | 127 kts | 19° |
| 2026-04-30 14:44 | 64.13264 | -51.72189 | 1393 ft | 126 kts | 19° |
| 2026-04-30 14:44 | 64.14092 | -51.71584 | 1205 ft | 125 kts | 19° |
| 2026-04-30 14:44 | 64.14925 | -51.70976 | 1018 ft | 124 kts | 19° |
| 2026-04-30 14:44 | 64.15742 | -51.70379 | 836 ft | 123 kts | 19° |
| 2026-04-30 14:45 | 64.16547 | -51.69792 | 658 ft | 122 kts | 20° |
| 2026-04-30 14:45 | 64.17351 | -51.69204 | 476 ft | 121 kts | 19° |
| 2026-04-30 14:45 | 64.18145 | -51.68626 | 290 ft | 120 kts | 19° |
| 2026-04-30 14:45 | 64.18846 | -51.68121 | 276 ft | 68 kts | 16° |
| 2026-04-30 14:46 | 64.19084 | -51.67874 | 280 ft | 27 kts | 69° |
| 2026-04-30 14:46 | 64.19078 | -51.67685 | 278 ft | 11 kts | 97° |
| 2026-04-30 14:46 | 64.19086 | -51.67485 | 277 ft | 13 kts | 66° |
| 2026-04-30 14:46 | 64.19115 | -51.67447 | 277 ft | 4 kts | 338° |
| 2026-04-30 14:47 | 64.19116 | -51.67465 | 277 ft | 0 kts | 248° |